Terminal Aerodrome Forecast
Issued by NWS Sterling, VA

Current Version | Previous Version | Graphics & Text | Print | Product List | Glossary On
Versions: 1 2 3 4 5 6 7 8 9 10 11 12 13 14 15 16 17 18 19 20 21 22 23
000
FTUS41 KLWX 052100 AAA
TAFMRB
TAF AMD
KMRB 052100Z 0521/0618 01006KT P6SM SCT020 OVC035
     FM052200 01006KT P6SM -SHRA OVC020
     FM060000 01005KT P6SM -SHRA OVC025
     FM060200 36004KT P6SM -SHRA OVC020
     FM060400 36004KT 3SM SHRA OVC010
     FM061200 35007KT 6SM SHRA OVC025
     FM061600 36008KT 3SM SHRA OVC025=

USA.gov is the U.S. government's official web portal to all federal, state and local government web resources and services.